createdAt,value
2023-05-09T00:03:12.709Z,1.77
2023-05-09T00:08:14.252Z,1.50
2023-05-09T00:13:15.679Z,1.67
2023-05-09T00:18:17.990Z,1.50
2023-05-09T00:23:19.390Z,1.85
2023-05-09T00:28:20.869Z,1.63
2023-05-09T00:33:22.302Z,1.60
2023-05-09T00:38:23.840Z,1.85
2023-05-09T00:43:25.666Z,1.38
2023-05-09T00:48:27.138Z,2.17
2023-05-09T00:53:28.741Z,1.63
2023-05-09T00:58:30.286Z,2.03
2023-05-09T01:03:32.108Z,1.73
2023-05-09T01:08:52.508Z,1.80
2023-05-09T01:13:59.668Z,1.73
2023-05-09T01:19:01.096Z,2.17
2023-05-09T01:24:17.504Z,1.83
2023-05-09T01:29:34.092Z,2.22
2023-05-09T01:34:36.231Z,1.77
2023-05-09T01:39:38.901Z,1.83
2023-05-09T01:44:42.192Z,2.22
2023-05-09T01:49:44.249Z,2.30
2023-05-09T01:54:45.903Z,2.38
2023-05-09T01:59:47.775Z,2.50
2023-05-09T02:04:49.735Z,2.00
2023-05-09T02:09:53.912Z,2.00
2023-05-09T02:14:55.336Z,2.10
2023-05-09T02:19:56.987Z,2.78
2023-05-09T02:24:58.338Z,2.28
2023-05-09T02:30:02.495Z,2.10
2023-05-09T02:35:04.565Z,2.53
2023-05-09T02:40:07.832Z,2.03
2023-05-09T02:45:11.112Z,2.37
2023-05-09T02:50:13.652Z,2.47
2023-05-09T02:55:15.329Z,3.20
2023-05-09T03:00:17.974Z,3.03
2023-05-09T03:05:19.273Z,3.10
2023-05-09T03:10:20.687Z,2.38
2023-05-09T03:15:22.094Z,2.13
2023-05-09T03:20:23.502Z,2.65
2023-05-09T03:25:26.346Z,2.72
2023-05-09T03:30:27.751Z,2.50
2023-05-09T03:35:29.156Z,2.75
2023-05-09T03:40:30.652Z,3.13
2023-05-09T03:45:31.995Z,3.00
2023-05-09T03:50:33.354Z,3.05
2023-05-09T03:55:34.762Z,2.58
2023-05-09T04:00:36.103Z,2.92
2023-05-09T04:05:37.593Z,2.55
2023-05-09T04:10:38.958Z,2.95
2023-05-09T04:15:40.375Z,3.22
2023-05-09T04:20:42.225Z,3.17
2023-05-09T04:25:43.712Z,3.15
2023-05-09T04:30:45.741Z,3.55
2023-05-09T04:35:47.237Z,3.22
2023-05-09T04:40:48.871Z,3.75
2023-05-09T04:45:50.403Z,3.58
2023-05-09T04:50:51.807Z,3.58
2023-05-09T04:55:53.355Z,3.55
2023-05-09T05:00:54.718Z,3.90
2023-05-09T05:05:56.056Z,3.67
2023-05-09T05:10:57.520Z,3.58
2023-05-09T05:15:59.074Z,3.95
2023-05-09T05:21:00.571Z,3.33
2023-05-09T05:26:02.053Z,3.25
2023-05-09T05:31:03.463Z,2.80
2023-05-09T05:40:33.364Z,3.88
2023-05-09T05:45:34.745Z,3.20
2023-05-09T05:50:36.748Z,3.53
2023-05-09T05:55:38.198Z,3.25
2023-05-09T06:00:39.734Z,4.00
2023-05-09T06:05:44.276Z,3.78
2023-05-09T06:10:45.688Z,3.53
2023-05-09T06:15:47.314Z,3.45
2023-05-09T06:20:48.699Z,3.65
2023-05-09T06:25:50.072Z,3.88
2023-05-09T06:30:51.476Z,3.60
2023-05-09T06:35:53.043Z,3.90
2023-05-09T06:40:54.882Z,4.13
2023-05-09T06:45:56.301Z,3.78
2023-05-09T06:50:57.684Z,3.17
2023-05-09T06:55:59.757Z,3.15
2023-05-09T07:01:01.082Z,3.38
2023-05-09T07:06:02.400Z,3.50
2023-05-09T07:11:03.870Z,3.15
2023-05-09T07:16:05.432Z,3.45
2023-05-09T07:21:07.340Z,3.10
2023-05-09T07:26:08.752Z,3.03
2023-05-09T07:31:10.239Z,2.95
2023-05-09T07:36:13.657Z,3.42
2023-05-09T07:41:15.434Z,3.87
2023-05-09T07:46:16.804Z,3.35
2023-05-09T07:51:18.144Z,2.90
2023-05-09T07:56:19.558Z,3.55
2023-05-09T08:01:21.064Z,2.83
2023-05-09T08:06:22.611Z,3.80
2023-05-09T08:11:24.293Z,3.60
2023-05-09T08:16:25.744Z,3.50
2023-05-09T08:21:27.150Z,3.40
2023-05-09T08:26:28.552Z,3.33
2023-05-09T08:31:30.052Z,3.25
2023-05-09T08:36:32.521Z,2.92
2023-05-09T08:41:35.925Z,3.55
2023-05-09T08:46:39.872Z,3.20
2023-05-09T08:51:41.328Z,3.55
2023-05-09T08:56:42.747Z,3.05
2023-05-09T09:01:44.356Z,2.97
2023-05-09T09:06:46.306Z,4.10
2023-05-09T09:11:47.880Z,3.25
2023-05-09T09:16:50.128Z,3.40
2023-05-09T09:21:54.934Z,3.13
2023-05-09T09:26:56.513Z,2.97
2023-05-09T09:32:01.256Z,3.05
2023-05-09T09:37:02.677Z,3.13
2023-05-09T09:42:13.034Z,2.92
2023-05-09T09:47:14.428Z,2.65
2023-05-09T09:52:22.714Z,2.80
2023-05-09T09:57:33.470Z,3.38
2023-05-09T10:02:34.912Z,3.10
2023-05-09T10:07:36.325Z,3.47
2023-05-09T10:12:37.772Z,3.20
2023-05-09T10:17:39.458Z,3.28
2023-05-09T10:22:41.087Z,3.10
2023-05-09T10:27:45.076Z,2.83
2023-05-09T10:32:53.954Z,3.08
2023-05-09T10:37:58.864Z,2.72
2023-05-09T10:43:00.517Z,3.45
2023-05-09T10:48:03.946Z,3.17
2023-05-09T10:53:08.542Z,3.45
2023-05-09T10:58:20.243Z,3.05
2023-05-09T11:03:22.031Z,2.97
2023-05-09T11:08:27.107Z,2.45
2023-05-09T11:13:32.277Z,2.88
2023-05-09T11:18:33.766Z,2.55
2023-05-09T11:23:35.222Z,2.75
2023-05-09T11:28:37.558Z,2.22
2023-05-09T11:33:39.636Z,2.63
2023-05-09T11:38:41.939Z,2.30
2023-05-09T11:43:46.559Z,2.25
2023-05-09T11:48:48.569Z,2.30
2023-05-09T11:53:50.676Z,2.28
2023-05-09T11:58:52.344Z,2.63
2023-05-09T12:03:53.928Z,2.30
2023-05-09T12:08:56.116Z,1.85
2023-05-09T12:13:57.544Z,2.17
2023-05-09T12:18:59.196Z,2.55
2023-05-09T12:24:00.590Z,2.38
2023-05-09T12:29:02.052Z,2.00
2023-05-09T12:34:03.694Z,1.83
2023-05-09T12:39:11.562Z,2.20
2023-05-09T12:44:22.922Z,1.75
2023-05-09T12:49:24.737Z,2.00
2023-05-09T12:54:27.561Z,2.50
2023-05-09T12:59:29.107Z,2.15
2023-05-09T13:04:30.559Z,2.22
2023-05-09T13:09:33.497Z,1.90
2023-05-09T13:14:34.897Z,1.60
2023-05-09T13:19:39.360Z,1.70
2023-05-09T13:24:40.837Z,1.48
2023-05-09T13:29:42.221Z,1.58
2023-05-09T13:34:43.610Z,1.67
2023-05-09T13:39:45.139Z,1.85
2023-05-09T13:44:46.539Z,1.88
2023-05-09T13:49:48.011Z,1.73
2023-05-09T13:54:49.640Z,1.38
2023-05-09T13:59:51.376Z,1.80
2023-05-09T14:04:52.827Z,1.50
2023-05-09T14:10:08.217Z,1.60
2023-05-09T14:15:13.222Z,1.85
2023-05-09T14:20:16.088Z,1.80
2023-05-09T14:25:17.952Z,1.60
2023-05-09T14:30:19.348Z,1.77
2023-05-09T14:35:20.827Z,1.52
2023-05-09T14:40:22.735Z,1.50
2023-05-09T14:45:24.220Z,1.77
2023-05-09T14:50:25.833Z,2.00
2023-05-09T14:55:28.585Z,1.27
2023-05-09T15:00:30.354Z,2.10
2023-05-09T15:05:31.731Z,1.70
2023-05-09T15:10:33.361Z,1.90
2023-05-09T15:15:34.902Z,1.77
2023-05-09T15:20:36.765Z,1.80
2023-05-09T15:25:38.217Z,2.05
2023-05-09T15:30:41.174Z,1.95
2023-05-09T15:35:43.982Z,2.00
2023-05-09T15:40:45.366Z,1.40
2023-05-09T15:45:47.562Z,6.20
2023-05-09T15:50:49.620Z,2.00
2023-05-09T15:55:51.115Z,1.80
2023-05-09T16:00:52.514Z,1.67
2023-05-09T16:05:53.894Z,2.10
2023-05-09T16:10:55.448Z,1.60
2023-05-09T16:15:57.069Z,1.90
2023-05-09T16:20:59.506Z,2.05
2023-05-09T16:26:01.004Z,1.73
2023-05-09T16:31:04.807Z,1.85
2023-05-09T16:36:06.886Z,1.77
2023-05-09T16:41:08.236Z,2.05
2023-05-09T16:46:09.736Z,1.63
2023-05-09T16:51:11.324Z,1.73
2023-05-09T16:56:12.817Z,1.60
2023-05-09T17:01:14.213Z,1.60
2023-05-09T17:06:15.785Z,1.60
2023-05-09T17:11:17.510Z,1.73
2023-05-09T17:16:20.240Z,1.60
2023-05-09T17:21:22.986Z,1.65
2023-05-09T17:26:24.416Z,2.00
2023-05-09T17:31:26.494Z,1.80
2023-05-09T17:36:27.870Z,1.70
2023-05-09T17:41:29.712Z,1.48
2023-05-09T17:46:32.253Z,1.60
2023-05-09T17:51:33.639Z,1.85
2023-05-09T17:56:35.181Z,1.98
2023-05-09T18:01:36.626Z,1.50
2023-05-09T18:06:38.015Z,1.45
2023-05-09T18:11:39.564Z,1.35
2023-05-09T18:16:41.039Z,1.45
2023-05-09T18:21:42.388Z,1.20
2023-05-09T18:26:43.760Z,1.77
2023-05-09T18:31:45.508Z,1.30
2023-05-09T18:36:47.213Z,1.45
2023-05-09T18:41:48.612Z,1.60
2023-05-09T18:46:50.104Z,1.77
2023-05-09T18:51:51.688Z,3.22
2023-05-09T18:56:53.191Z,2.00
2023-05-09T19:01:54.570Z,1.38
2023-05-09T19:06:56.002Z,1.60
2023-05-09T19:11:59.487Z,2.35
2023-05-09T19:17:01.427Z,1.58
2023-05-09T19:22:02.954Z,1.90
2023-05-09T19:27:05.125Z,1.55
2023-05-09T19:32:07.059Z,1.45
2023-05-09T19:37:08.459Z,1.50
2023-05-09T19:42:09.919Z,1.52
2023-05-09T19:47:11.261Z,1.65
2023-05-09T19:52:12.731Z,1.50
2023-05-09T19:57:14.184Z,1.70
2023-05-09T20:02:15.615Z,1.33
2023-05-09T20:07:17.640Z,1.40
2023-05-09T20:12:19.103Z,1.90
2023-05-09T20:17:20.460Z,1.20
2023-05-09T20:22:21.789Z,1.50
2023-05-09T20:27:23.551Z,1.85
2023-05-09T20:32:25.329Z,2.17
2023-05-09T20:37:26.817Z,1.40
2023-05-09T20:42:28.215Z,2.47
2023-05-09T20:47:29.597Z,2.45
2023-05-09T20:52:30.978Z,1.58
2023-05-09T20:57:32.354Z,2.00
2023-05-09T21:02:34.422Z,1.77
2023-05-09T21:07:35.789Z,1.67
2023-05-09T21:12:37.213Z,1.73
2023-05-09T21:17:38.680Z,1.63
2023-05-09T21:22:40.080Z,1.45
2023-05-09T21:27:41.394Z,1.58
2023-05-09T21:32:42.770Z,1.90
2023-05-09T21:37:45.014Z,2.08
2023-05-09T21:42:46.746Z,2.13
2023-05-09T21:47:48.733Z,1.65
2023-05-09T21:52:50.119Z,1.80
2023-05-09T21:57:51.858Z,1.77
2023-05-09T22:02:53.341Z,2.00
2023-05-09T22:07:55.070Z,2.17
2023-05-09T22:12:56.870Z,2.10
2023-05-09T22:17:58.279Z,2.17
2023-05-09T22:22:59.713Z,3.30
2023-05-09T22:28:01.084Z,1.95
2023-05-09T22:33:02.662Z,2.00
2023-05-09T22:38:05.171Z,2.58
2023-05-09T22:43:06.605Z,2.28
2023-05-09T22:48:08.096Z,2.42
2023-05-09T22:53:09.751Z,2.10
2023-05-09T22:58:11.155Z,2.47
2023-05-09T23:03:12.529Z,1.85
2023-05-09T23:08:13.987Z,2.25
2023-05-09T23:13:15.585Z,2.15
2023-05-09T23:18:16.985Z,2.25
2023-05-09T23:23:18.356Z,2.13
2023-05-09T23:28:21.435Z,2.30
2023-05-09T23:33:22.772Z,2.20
2023-05-09T23:38:24.193Z,2.40
2023-05-09T23:43:25.560Z,2.88
2023-05-09T23:48:26.954Z,2.30
2023-05-09T23:53:28.546Z,2.05
2023-05-09T23:58:29.933Z,2.47
